sensor_id;sensor_type;location;lat;lon;timestamp;temperature;humidity
34303;DHT22;20785;50.020;19.916;2022-10-31T00:02:04;13.57;71.19
34303;DHT22;20785;50.020;19.916;2022-10-31T00:08:05;-128.00;-1.00
34303;DHT22;20785;50.020;19.916;2022-10-31T00:14:07;13.45;71.14
34303;DHT22;20785;50.020;19.916;2022-10-31T00:20:10;13.45;71.20
34303;DHT22;20785;50.020;19.916;2022-10-31T00:26:11;13.41;71.27
34303;DHT22;20785;50.020;19.916;2022-10-31T00:32:12;13.35;71.37
34303;DHT22;20785;50.020;19.916;2022-10-31T00:38:14;13.31;71.49
34303;DHT22;20785;50.020;19.916;2022-10-31T00:44:15;13.29;71.47
34303;DHT22;20785;50.020;19.916;2022-10-31T00:50:17;13.26;71.54
34303;DHT22;20785;50.020;19.916;2022-10-31T00:56:18;13.24;71.79
34303;DHT22;20785;50.020;19.916;2022-10-31T01:08:30;13.16;71.40
34303;DHT22;20785;50.020;19.916;2022-10-31T01:14:46;13.09;71.30
34303;DHT22;20785;50.020;19.916;2022-10-31T01:21:07;13.05;71.29
34303;DHT22;20785;50.020;19.916;2022-10-31T01:27:09;12.99;71.33
34303;DHT22;20785;50.020;19.916;2022-10-31T01:33:10;12.95;71.33
34303;DHT22;20785;50.020;19.916;2022-10-31T01:39:14;12.86;71.35
34303;DHT22;20785;50.020;19.916;2022-10-31T01:45:16;12.79;71.25
34303;DHT22;20785;50.020;19.916;2022-10-31T01:51:22;12.78;71.33
34303;DHT22;20785;50.020;19.916;2022-10-31T01:57:25;12.76;71.37
34303;DHT22;20785;50.020;19.916;2022-10-31T02:03:28;12.71;71.31
34303;DHT22;20785;50.020;19.916;2022-10-31T02:09:31;12.68;71.24
34303;DHT22;20785;50.020;19.916;2022-10-31T02:15:37;12.64;71.35
34303;DHT22;20785;50.020;19.916;2022-10-31T02:21:57;12.58;71.41
34303;DHT22;20785;50.020;19.916;2022-10-31T02:47:26;-128.00;-1.00
34303;DHT22;20785;50.020;19.916;2022-10-31T02:53:34;-128.00;-1.00
34303;DHT22;20785;50.020;19.916;2022-10-31T02:59:44;-128.00;-1.00
34303;DHT22;20785;50.020;19.916;2022-10-31T03:12:38;-128.00;-1.00
34303;DHT22;20785;50.020;19.916;2022-10-31T03:18:43;-128.00;-1.00
34303;DHT22;20785;50.020;19.916;2022-10-31T03:24:45;-128.00;-1.00
34303;DHT22;20785;50.020;19.916;2022-10-31T03:30:49;12.89;73.13
34303;DHT22;20785;50.020;19.916;2022-10-31T03:36:55;12.92;73.10
34303;DHT22;20785;50.020;19.916;2022-10-31T03:43:01;13.12;73.42
34303;DHT22;20785;50.020;19.916;2022-10-31T03:49:06;13.20;73.08
34303;DHT22;20785;50.020;19.916;2022-10-31T03:55:27;13.22;72.68
34303;DHT22;20785;50.020;19.916;2022-10-31T04:01:32;13.20;72.45
34303;DHT22;20785;50.020;19.916;2022-10-31T04:07:42;13.15;72.27
34303;DHT22;20785;50.020;19.916;2022-10-31T04:13:46;13.10;71.98
34303;DHT22;20785;50.020;19.916;2022-10-31T04:19:49;12.99;71.88
34303;DHT22;20785;50.020;19.916;2022-10-31T04:25:51;12.91;71.89
34303;DHT22;20785;50.020;19.916;2022-10-31T04:31:52;12.82;71.98
34303;DHT22;20785;50.020;19.916;2022-10-31T04:37:54;12.72;72.00
34303;DHT22;20785;50.020;19.916;2022-10-31T04:43:56;12.68;71.93
34303;DHT22;20785;50.020;19.916;2022-10-31T04:49:57;12.62;72.07
34303;DHT22;20785;50.020;19.916;2022-10-31T04:55:59;12.61;72.23
34303;DHT22;20785;50.020;19.916;2022-10-31T05:02:05;12.57;72.34
34303;DHT22;20785;50.020;19.916;2022-10-31T05:08:15;12.55;72.35
34303;DHT22;20785;50.020;19.916;2022-10-31T05:14:16;12.53;72.49
34303;DHT22;20785;50.020;19.916;2022-10-31T05:20:30;12.50;72.45
34303;DHT22;20785;50.020;19.916;2022-10-31T05:26:39;12.50;72.56
34303;DHT22;20785;50.020;19.916;2022-10-31T05:32:42;12.43;72.34
34303;DHT22;20785;50.020;19.916;2022-10-31T05:38:49;12.36;72.22
34303;DHT22;20785;50.020;19.916;2022-10-31T05:44:58;12.35;72.34
34303;DHT22;20785;50.020;19.916;2022-10-31T05:51:01;12.35;72.56
34303;DHT22;20785;50.020;19.916;2022-10-31T05:57:02;12.36;72.31
34303;DHT22;20785;50.020;19.916;2022-10-31T06:03:07;12.37;72.39
34303;DHT22;20785;50.020;19.916;2022-10-31T06:09:10;12.41;72.63
34303;DHT22;20785;50.020;19.916;2022-10-31T06:15:12;-128.00;-1.00
34303;DHT22;20785;50.020;19.916;2022-10-31T06:21:13;12.46;72.98
34303;DHT22;20785;50.020;19.916;2022-10-31T06:27:15;12.53;73.32
34303;DHT22;20785;50.020;19.916;2022-10-31T06:33:16;12.61;73.61
34303;DHT22;20785;50.020;19.916;2022-10-31T06:39:23;12.74;74.07
34303;DHT22;20785;50.020;19.916;2022-10-31T06:45:25;12.76;74.36
34303;DHT22;20785;50.020;19.916;2022-10-31T06:51:28;12.88;74.38
34303;DHT22;20785;50.020;19.916;2022-10-31T06:57:29;12.96;74.50
34303;DHT22;20785;50.020;19.916;2022-10-31T07:03:31;13.10;74.73
34303;DHT22;20785;50.020;19.916;2022-10-31T07:09:32;13.23;74.98
34303;DHT22;20785;50.020;19.916;2022-10-31T07:15:38;13.38;74.82
34303;DHT22;20785;50.020;19.916;2022-10-31T07:21:40;13.52;74.87
34303;DHT22;20785;50.020;19.916;2022-10-31T07:27:42;13.69;74.83
34303;DHT22;20785;50.020;19.916;2022-10-31T07:33:45;13.88;74.91
34303;DHT22;20785;50.020;19.916;2022-10-31T07:39:54;14.00;74.72
34303;DHT22;20785;50.020;19.916;2022-10-31T07:45:58;14.14;74.78
34303;DHT22;20785;50.020;19.916;2022-10-31T07:52:21;14.25;74.85
34303;DHT22;20785;50.020;19.916;2022-10-31T07:58:36;14.44;74.81
34303;DHT22;20785;50.020;19.916;2022-10-31T08:04:38;14.55;74.63
34303;DHT22;20785;50.020;19.916;2022-10-31T08:10:58;14.94;73.67
34303;DHT22;20785;50.020;19.916;2022-10-31T08:17:00;14.87;74.30
34303;DHT22;20785;50.020;19.916;2022-10-31T08:23:05;15.07;74.18
34303;DHT22;20785;50.020;19.916;2022-10-31T08:29:08;15.24;73.59
34303;DHT22;20785;50.020;19.916;2022-10-31T08:35:10;15.41;73.40
34303;DHT22;20785;50.020;19.916;2022-10-31T08:41:30;15.58;73.22
34303;DHT22;20785;50.020;19.916;2022-10-31T08:47:32;15.74;73.13
34303;DHT22;20785;50.020;19.916;2022-10-31T08:53:34;15.89;72.77
34303;DHT22;20785;50.020;19.916;2022-10-31T08:59:40;16.00;72.53
34303;DHT22;20785;50.020;19.916;2022-10-31T09:05:50;16.10;72.18
34303;DHT22;20785;50.020;19.916;2022-10-31T09:11:52;16.28;71.99
34303;DHT22;20785;50.020;19.916;2022-10-31T09:18:12;16.44;71.73
34303;DHT22;20785;50.020;19.916;2022-10-31T09:24:19;16.58;71.35
34303;DHT22;20785;50.020;19.916;2022-10-31T09:30:21;16.79;70.69
34303;DHT22;20785;50.020;19.916;2022-10-31T09:36:28;16.98;70.23
34303;DHT22;20785;50.020;19.916;2022-10-31T09:49:24;17.41;68.19
34303;DHT22;20785;50.020;19.916;2022-10-31T09:55:44;17.65;67.75
34303;DHT22;20785;50.020;19.916;2022-10-31T10:01:56;17.81;67.74
34303;DHT22;20785;50.020;19.916;2022-10-31T10:08:16;17.97;67.03
34303;DHT22;20785;50.020;19.916;2022-10-31T10:21:13;18.28;66.06
34303;DHT22;20785;50.020;19.916;2022-10-31T10:34:12;18.53;65.46
34303;DHT22;20785;50.020;19.916;2022-10-31T10:40:17;18.63;65.41
34303;DHT22;20785;50.020;19.916;2022-10-31T10:46:47;18.75;65.00
34303;DHT22;20785;50.020;19.916;2022-10-31T10:53:34;18.78;64.86
34303;DHT22;20785;50.020;19.916;2022-10-31T10:59:36;18.85;64.61
34303;DHT22;20785;50.020;19.916;2022-10-31T11:05:51;18.91;64.30
34303;DHT22;20785;50.020;19.916;2022-10-31T11:11:56;19.09;63.34
34303;DHT22;20785;50.020;19.916;2022-10-31T11:18:01;19.33;62.45
34303;DHT22;20785;50.020;19.916;2022-10-31T11:24:18;19.54;61.83
34303;DHT22;20785;50.020;19.916;2022-10-31T11:30:20;19.71;61.13
34303;DHT22;20785;50.020;19.916;2022-10-31T11:36:30;19.80;61.28
34303;DHT22;20785;50.020;19.916;2022-10-31T11:42:38;19.91;60.89
34303;DHT22;20785;50.020;19.916;2022-10-31T11:48:47;19.98;60.73
34303;DHT22;20785;50.020;19.916;2022-10-31T11:55:15;20.13;60.63
34303;DHT22;20785;50.020;19.916;2022-10-31T12:01:26;20.19;60.43
34303;DHT22;20785;50.020;19.916;2022-10-31T12:07:28;20.26;60.53
34303;DHT22;20785;50.020;19.916;2022-10-31T12:27:08;19.53;61.49
34303;DHT22;20785;50.020;19.916;2022-10-31T12:33:40;19.22;63.03
34303;DHT22;20785;50.020;19.916;2022-10-31T12:39:55;19.68;62.79
34303;DHT22;20785;50.020;19.916;2022-10-31T12:45:57;20.05;61.75
34303;DHT22;20785;50.020;19.916;2022-10-31T12:52:48;20.29;61.25
34303;DHT22;20785;50.020;19.916;2022-10-31T13:05:31;20.51;60.70
34303;DHT22;20785;50.020;19.916;2022-10-31T13:11:40;20.57;60.46
34303;DHT22;20785;50.020;19.916;2022-10-31T13:17:47;20.64;60.23
34303;DHT22;20785;50.020;19.916;2022-10-31T13:23:50;20.68;60.00
34303;DHT22;20785;50.020;19.916;2022-10-31T13:36:47;19.68;61.56
34303;DHT22;20785;50.020;19.916;2022-10-31T13:43:28;19.26;62.06
34303;DHT22;20785;50.020;19.916;2022-10-31T13:55:45;-128.00;-1.00
34303;DHT22;20785;50.020;19.916;2022-10-31T14:02:01;-128.00;-1.00
34303;DHT22;20785;50.020;19.916;2022-10-31T14:08:05;-128.00;-1.00
34303;DHT22;20785;50.020;19.916;2022-10-31T14:14:10;20.02;61.54
34303;DHT22;20785;50.020;19.916;2022-10-31T14:20:21;20.09;61.31
34303;DHT22;20785;50.020;19.916;2022-10-31T14:32:33;-128.00;-1.00
34303;DHT22;20785;50.020;19.916;2022-10-31T14:51:42;-128.00;-1.00
34303;DHT22;20785;50.020;19.916;2022-10-31T14:57:50;-128.00;-1.00
34303;DHT22;20785;50.020;19.916;2022-10-31T15:03:52;-128.00;-1.00
34303;DHT22;20785;50.020;19.916;2022-10-31T15:10:20;-128.00;-1.00
34303;DHT22;20785;50.020;19.916;2022-10-31T15:16:30;-128.00;-1.00
34303;DHT22;20785;50.020;19.916;2022-10-31T15:22:32;-128.00;-1.00
34303;DHT22;20785;50.020;19.916;2022-10-31T15:28:34;-128.00;-1.00
34303;DHT22;20785;50.020;19.916;2022-10-31T15:34:43;-128.00;-1.00
34303;DHT22;20785;50.020;19.916;2022-10-31T15:41:05;-128.00;-1.00
34303;DHT22;20785;50.020;19.916;2022-10-31T15:47:17;-128.00;-1.00
34303;DHT22;20785;50.020;19.916;2022-10-31T15:53:22;-128.00;-1.00
34303;DHT22;20785;50.020;19.916;2022-10-31T15:59:27;-128.00;-1.00
34303;DHT22;20785;50.020;19.916;2022-10-31T16:05:52;-128.00;-1.00
34303;DHT22;20785;50.020;19.916;2022-10-31T16:11:57;-128.00;-1.00
34303;DHT22;20785;50.020;19.916;2022-10-31T16:18:00;-128.00;-1.00
34303;DHT22;20785;50.020;19.916;2022-10-31T16:30:39;17.65;64.10
34303;DHT22;20785;50.020;19.916;2022-10-31T16:36:41;17.48;64.20
34303;DHT22;20785;50.020;19.916;2022-10-31T16:42:45;-128.00;-1.00
34303;DHT22;20785;50.020;19.916;2022-10-31T16:48:48;-128.00;-1.00
34303;DHT22;20785;50.020;19.916;2022-10-31T16:54:54;-128.00;-1.00
34303;DHT22;20785;50.020;19.916;2022-10-31T17:00:55;16.98;64.97
34303;DHT22;20785;50.020;19.916;2022-10-31T17:06:56;16.87;65.21
34303;DHT22;20785;50.020;19.916;2022-10-31T17:12:58;-128.00;-1.00
34303;DHT22;20785;50.020;19.916;2022-10-31T17:19:02;-128.00;-1.00
34303;DHT22;20785;50.020;19.916;2022-10-31T17:25:07;-128.00;-1.00
34303;DHT22;20785;50.020;19.916;2022-10-31T17:31:23;-128.00;-1.00
34303;DHT22;20785;50.020;19.916;2022-10-31T17:37:15;16.39;66.09
34303;DHT22;20785;50.020;19.916;2022-10-31T17:43:17;16.29;66.14
34303;DHT22;20785;50.020;19.916;2022-10-31T17:49:18;16.17;66.18
34303;DHT22;20785;50.020;19.916;2022-10-31T17:55:20;16.07;66.35
34303;DHT22;20785;50.020;19.916;2022-10-31T18:01:25;-128.00;-1.00
34303;DHT22;20785;50.020;19.916;2022-10-31T18:07:24;-128.00;-1.00
34303;DHT22;20785;50.020;19.916;2022-10-31T18:13:28;-128.00;-1.00
34303;DHT22;20785;50.020;19.916;2022-10-31T18:19:29;-128.00;-1.00
34303;DHT22;20785;50.020;19.916;2022-10-31T18:25:30;-128.00;-1.00
34303;DHT22;20785;50.020;19.916;2022-10-31T18:31:32;-128.00;-1.00
34303;DHT22;20785;50.020;19.916;2022-10-31T18:37:33;-128.00;-1.00
34303;DHT22;20785;50.020;19.916;2022-10-31T18:43:36;-128.00;-1.00
34303;DHT22;20785;50.020;19.916;2022-10-31T18:49:38;-128.00;-1.00
34303;DHT22;20785;50.020;19.916;2022-10-31T18:55:40;-128.00;-1.00
34303;DHT22;20785;50.020;19.916;2022-10-31T19:01:42;-128.00;-1.00
34303;DHT22;20785;50.020;19.916;2022-10-31T19:07:44;-128.00;-1.00
34303;DHT22;20785;50.020;19.916;2022-10-31T19:13:45;-128.00;-1.00
34303;DHT22;20785;50.020;19.916;2022-10-31T19:19:46;-128.00;-1.00
34303;DHT22;20785;50.020;19.916;2022-10-31T19:25:47;-128.00;-1.00
34303;DHT22;20785;50.020;19.916;2022-10-31T19:31:50;-128.00;-1.00
34303;DHT22;20785;50.020;19.916;2022-10-31T19:37:52;-128.00;-1.00
34303;DHT22;20785;50.020;19.916;2022-10-31T19:44:01;-128.00;-1.00
34303;DHT22;20785;50.020;19.916;2022-10-31T19:50:05;-128.00;-1.00
34303;DHT22;20785;50.020;19.916;2022-10-31T19:56:12;-128.00;-1.00
34303;DHT22;20785;50.020;19.916;2022-10-31T20:02:14;14.54;68.06
34303;DHT22;20785;50.020;19.916;2022-10-31T20:08:19;14.47;67.99
34303;DHT22;20785;50.020;19.916;2022-10-31T20:14:24;14.40;67.96
34303;DHT22;20785;50.020;19.916;2022-10-31T20:20:25;14.31;67.86
34303;DHT22;20785;50.020;19.916;2022-10-31T20:26:28;14.20;67.92
34303;DHT22;20785;50.020;19.916;2022-10-31T20:32:30;14.12;68.13
34303;DHT22;20785;50.020;19.916;2022-10-31T20:38:32;14.04;68.32
34303;DHT22;20785;50.020;19.916;2022-10-31T20:44:33;14.00;68.27
34303;DHT22;20785;50.020;19.916;2022-10-31T20:50:42;13.92;68.27
34303;DHT22;20785;50.020;19.916;2022-10-31T20:56:44;13.85;68.34
34303;DHT22;20785;50.020;19.916;2022-10-31T21:02:45;13.78;68.36
34303;DHT22;20785;50.020;19.916;2022-10-31T21:08:47;-128.00;-1.00
34303;DHT22;20785;50.020;19.916;2022-10-31T21:14:51;-128.00;-1.00
34303;DHT22;20785;50.020;19.916;2022-10-31T21:20:53;-128.00;-1.00
34303;DHT22;20785;50.020;19.916;2022-10-31T21:27:03;-128.00;-1.00
34303;DHT22;20785;50.020;19.916;2022-10-31T21:33:23;-128.00;-1.00
34303;DHT22;20785;50.020;19.916;2022-10-31T21:39:21;-128.00;-1.00
34303;DHT22;20785;50.020;19.916;2022-10-31T21:45:29;-128.00;-1.00
34303;DHT22;20785;50.020;19.916;2022-10-31T21:51:33;13.26;68.93
34303;DHT22;20785;50.020;19.916;2022-10-31T21:57:43;-128.00;-1.00
34303;DHT22;20785;50.020;19.916;2022-10-31T22:03:55;13.16;69.05
34303;DHT22;20785;50.020;19.916;2022-10-31T22:10:02;-128.00;-1.00
34303;DHT22;20785;50.020;19.916;2022-10-31T22:16:22;-128.00;-1.00
34303;DHT22;20785;50.020;19.916;2022-10-31T22:22:31;-128.00;-1.00
34303;DHT22;20785;50.020;19.916;2022-10-31T22:28:34;-128.00;-1.00
34303;DHT22;20785;50.020;19.916;2022-10-31T22:34:57;-128.00;-1.00
34303;DHT22;20785;50.020;19.916;2022-10-31T22:41:00;-128.00;-1.00
34303;DHT22;20785;50.020;19.916;2022-10-31T22:47:19;-128.00;-1.00
34303;DHT22;20785;50.020;19.916;2022-10-31T22:53:23;-128.00;-1.00
34303;DHT22;20785;50.020;19.916;2022-10-31T22:59:24;-128.00;-1.00
34303;DHT22;20785;50.020;19.916;2022-10-31T23:05:28;-128.00;-1.00
34303;DHT22;20785;50.020;19.916;2022-10-31T23:11:42;-128.00;-1.00
34303;DHT22;20785;50.020;19.916;2022-10-31T23:17:43;-128.00;-1.00
34303;DHT22;20785;50.020;19.916;2022-10-31T23:23:44;-128.00;-1.00
34303;DHT22;20785;50.020;19.916;2022-10-31T23:29:55;-128.00;-1.00
34303;DHT22;20785;50.020;19.916;2022-10-31T23:35:59;-128.00;-1.00
34303;DHT22;20785;50.020;19.916;2022-10-31T23:42:03;-128.00;-1.00
34303;DHT22;20785;50.020;19.916;2022-10-31T23:48:07;-128.00;-1.00
34303;DHT22;20785;50.020;19.916;2022-10-31T23:54:11;-128.00;-1.00
